Terminal Aerodrome Forecast
Issued by NWS Charleston, WV

Home | Current Version | Previous Version | Text Only | Print | Product List | Glossary On
Versions: 1 2 3 4 5 6 7 8 9 10 11 12 13 14 15 16 17 18 19 20 21 22 23 24 25 26
387
FTUS41 KRLX 202332
TAFPKB
TAF
KPKB 202332Z 2100/2124 20006KT P6SM FEW250
     FM211400 20006KT P6SM BKN030
     FM211700 28008KT 3SM SHRA OVC015
     FM211900 29008KT P6SM SHRA OVC035
     FM212300 36007KT 3SM SHRA OVC015=

USA.gov is the U.S. government's official web portal to all federal, state and local government web resources and services.